Time;durP1;ratioP1;P1;durP2;ratioP2;P2;SDS_P1;SDS_P2;PMS_P1;PMS_P2;Temp;Humidity;BMP_temperature;BMP_pressure;BME280_temperature;BME280_humidity;BME280_pressure;Samples;Min_cycle;Max_cycle;Signal;HPM_P1;HPM_P2
2022/11/07 00:02:05;;;;;;;;;;;7.30;99.90;;;;;;5046882;28;19913;-90
2022/11/07 00:04:31;;;;;;;;;;;7.30;99.90;;;;;;5043801;28;20310;-90
2022/11/07 00:06:57;;;;;;;;;;;7.20;99.90;;;;;;5057199;28;19912;-90
2022/11/07 00:09:23;;;;;;;;;;;7.20;99.90;;;;;;5081664;28;19915;-90
2022/11/07 00:11:48;;;;;;;;;;;7.10;99.90;;;;;;5094826;28;19908;-90
2022/11/07 00:14:20;;;;;;;;;;;7.10;99.90;;;;;;5052257;28;19909;-90
2022/11/07 00:16:46;;;;;;;;;;;7.10;99.90;;;;;;5065533;28;19998;-90
2022/11/07 00:19:14;;;;;;;;;;;7.10;99.90;;;;;;5074629;28;20193;-90
2022/11/07 00:21:40;;;;;;;;;;;7.10;99.90;;;;;;5082832;28;19919;-91
2022/11/07 00:27:33;;;;;;;;;;;7.20;99.90;;;;;;5057206;28;20024;-90
2022/11/07 00:30:00;;;;;;;;;;;7.30;99.90;;;;;;5076476;28;20023;-90
2022/11/07 00:32:26;;;;;;;;;;;7.30;99.90;;;;;;5072103;28;19952;-90
2022/11/07 00:35:01;;;;;;;;;;;7.40;99.90;;;;;;5080021;28;19916;-91
2022/11/07 00:37:26;;;;;;;;;;;7.40;99.90;;;;;;5059258;28;19962;-90
2022/11/07 00:39:52;;;;;;;;;;;7.50;99.90;;;;;;5065272;28;19909;-90
2022/11/07 00:42:17;;;;;;;;;;;7.40;99.90;;;;;;5042978;28;19912;-90
2022/11/07 00:44:43;;;;;;;;;;;7.50;99.90;;;;;;5081325;28;19917;-90
2022/11/07 00:47:08;;;;;;;;;;;7.40;99.90;;;;;;5060018;28;20548;-90
2022/11/07 00:49:34;;;;;;;;;;;7.40;99.90;;;;;;5037971;28;19908;-90
2022/11/07 00:51:59;;;;;;;;;;;7.40;99.90;;;;;;5049083;28;19909;-90
2022/11/07 00:57:54;;;;;;;;;;;7.40;99.90;;;;;;5046503;28;19919;-90
2022/11/07 01:00:20;;;;;;;;;;;7.50;99.90;;;;;;5044934;28;19909;-90
2022/11/07 01:05:09;;;;;;;;;;;7.40;99.90;;;;;;5059370;28;20003;-89
2022/11/07 01:05:31;;;;;;;;;;;7.50;99.90;;;;;;5074520;28;19919;-89
2022/11/07 01:07:56;;;;;;;;;;;7.50;99.90;;;;;;5058625;28;19908;-91
2022/11/07 01:10:22;;;;;;;;;;;7.50;99.90;;;;;;5082805;28;19934;-90
2022/11/07 01:12:47;;;;;;;;;;;7.50;99.90;;;;;;5063939;28;19912;-90
2022/11/07 01:15:34;;;;;;;;;;;7.50;99.90;;;;;;5059182;28;19909;-90
2022/11/07 01:17:59;;;;;;;;;;;7.50;99.90;;;;;;5075392;28;19909;-90
2022/11/07 01:20:25;;;;;;;;;;;7.50;99.90;;;;;;5070879;28;19913;-90
2022/11/07 01:22:50;;;;;;;;;;;7.50;99.90;;;;;;5069154;28;20374;-90
2022/11/07 01:25:16;;;;;;;;;;;7.50;99.90;;;;;;5055914;28;20262;-90
2022/11/07 01:27:41;;;;;;;;;;;7.50;99.90;;;;;;5086856;28;20291;-90
2022/11/07 01:30:07;;;;;;;;;;;7.60;99.90;;;;;;5060882;28;19920;-90
2022/11/07 01:32:33;;;;;;;;;;;7.60;99.90;;;;;;5090809;28;19916;-90
2022/11/07 01:34:58;;;;;;;;;;;7.60;99.90;;;;;;5053672;28;19915;-90
2022/11/07 01:37:24;;;;;;;;;;;7.60;99.90;;;;;;5054955;28;19909;-90
2022/11/07 01:39:49;;;;;;;;;;;7.60;99.90;;;;;;5069917;28;19908;-90
2022/11/07 01:42:15;;;;;;;;;;;7.60;99.90;;;;;;5057415;28;19909;-90
2022/11/07 01:44:40;;;;;;;;;;;7.70;99.90;;;;;;5104791;28;20446;-90
2022/11/07 01:47:06;;;;;;;;;;;7.70;99.90;;;;;;5060721;28;19931;-90
2022/11/07 01:49:33;;;;;;;;;;;7.70;99.90;;;;;;5053751;28;19916;-90
2022/11/07 01:52:10;;;;;;;;;;;7.70;99.90;;;;;;5104724;28;19916;-90
2022/11/07 01:54:38;;;;;;;;;;;7.70;99.90;;;;;;5055709;28;19909;-90
2022/11/07 01:57:05;;;;;;;;;;;7.80;99.90;;;;;;5069935;28;19909;-90
2022/11/07 01:59:32;;;;;;;;;;;7.80;99.90;;;;;;5071799;28;19909;-90
2022/11/07 02:01:58;;;;;;;;;;;7.80;99.90;;;;;;5073485;28;20021;-89
2022/11/07 02:04:26;;;;;;;;;;;7.80;99.90;;;;;;5060699;28;19948;-90
2022/11/07 02:07:21;;;;;;;;;;;7.80;99.90;;;;;;5061077;28;19959;-90
2022/11/07 02:09:56;;;;;;;;;;;7.80;99.90;;;;;;5091808;28;20004;-90
2022/11/07 02:12:22;;;;;;;;;;;7.90;99.90;;;;;;5043951;28;19908;-90
2022/11/07 02:14:48;;;;;;;;;;;7.90;99.90;;;;;;5053763;28;20367;-91
2022/11/07 02:17:15;;;;;;;;;;;8.00;99.90;;;;;;5050754;28;20382;-90
2022/11/07 02:19:51;;;;;;;;;;;8.00;99.90;;;;;;5056670;28;19917;-90
2022/11/07 02:22:36;;;;;;;;;;;8.00;99.90;;;;;;5050497;28;19921;-90
2022/11/07 02:25:03;;;;;;;;;;;8.10;99.90;;;;;;5058694;28;20350;-90
2022/11/07 02:27:30;;;;;;;;;;;8.00;99.90;;;;;;5064652;28;19914;-90
2022/11/07 02:30:00;;;;;;;;;;;8.00;99.90;;;;;;5054998;28;19909;-90
2022/11/07 02:32:26;;;;;;;;;;;8.10;99.90;;;;;;5062767;28;19912;-90
2022/11/07 02:34:59;;;;;;;;;;;8.10;99.90;;;;;;5057764;28;19986;-90
2022/11/07 02:37:37;;;;;;;;;;;8.10;99.90;;;;;;5080503;28;19908;-90
2022/11/07 02:40:08;;;;;;;;;;;8.10;99.90;;;;;;5054024;28;19955;-90
2022/11/07 02:42:43;;;;;;;;;;;8.00;99.90;;;;;;5084360;28;19909;-90
2022/11/07 02:45:09;;;;;;;;;;;8.10;99.90;;;;;;5057852;28;19913;-90
2022/11/07 02:47:34;;;;;;;;;;;8.10;99.90;;;;;;5077991;28;19916;-90
2022/11/07 02:50:00;;;;;;;;;;;8.00;99.90;;;;;;5066282;28;19909;-90
2022/11/07 02:52:26;;;;;;;;;;;8.10;99.90;;;;;;5054152;28;20423;-90
2022/11/07 02:55:07;;;;;;;;;;;8.10;99.90;;;;;;5085201;28;20283;-91
2022/11/07 02:57:33;;;;;;;;;;;8.10;99.90;;;;;;5054290;28;19913;-90
2022/11/07 02:59:59;;;;;;;;;;;8.00;99.90;;;;;;5053814;28;19962;-90
2022/11/07 03:02:25;;;;;;;;;;;8.10;99.90;;;;;;5055847;28;19917;-90
2022/11/07 03:04:50;;;;;;;;;;;8.00;99.90;;;;;;5077430;28;19913;-90
2022/11/07 03:07:16;;;;;;;;;;;8.00;99.90;;;;;;5043372;28;19909;-90
2022/11/07 03:09:41;;;;;;;;;;;8.00;99.90;;;;;;5062261;28;20506;-90
2022/11/07 03:12:07;;;;;;;;;;;8.10;99.90;;;;;;5043746;28;19908;-90
2022/11/07 03:14:33;;;;;;;;;;;8.00;99.90;;;;;;5052947;28;19938;-90
2022/11/07 03:16:58;;;;;;;;;;;8.10;99.90;;;;;;5045043;28;19954;-90
2022/11/07 03:19:49;;;;;;;;;;;8.10;99.90;;;;;;5057701;28;19908;-88
2022/11/07 03:22:14;;;;;;;;;;;8.20;99.90;;;;;;5059073;28;19971;-88
2022/11/07 03:24:40;;;;;;;;;;;8.20;99.90;;;;;;5033939;28;19955;-88
2022/11/07 03:27:05;;;;;;;;;;;8.10;99.90;;;;;;5064018;28;19915;-88
2022/11/07 03:29:31;;;;;;;;;;;8.10;99.90;;;;;;5059976;28;19961;-88
2022/11/07 03:31:57;;;;;;;;;;;8.10;99.90;;;;;;5057767;28;19909;-87
2022/11/07 03:34:22;;;;;;;;;;;8.10;99.90;;;;;;5067212;28;20389;-87
2022/11/07 03:36:48;;;;;;;;;;;8.10;99.90;;;;;;5042890;28;20252;-88
2022/11/07 03:39:13;;;;;;;;;;;8.10;99.90;;;;;;5067089;28;20275;-88
2022/11/07 03:41:39;;;;;;;;;;;8.10;99.90;;;;;;5044850;28;19908;-88
2022/11/07 03:44:05;;;;;;;;;;;8.10;99.90;;;;;;5035712;28;19911;-88
2022/11/07 03:46:30;;;;;;;;;;;8.20;99.90;;;;;;5062388;28;20304;-88
2022/11/07 03:48:56;;;;;;;;;;;8.20;99.90;;;;;;5055552;28;19962;-90
2022/11/07 03:51:21;;;;;;;;;;;8.20;99.90;;;;;;5078571;28;19908;-90
2022/11/07 03:53:47;;;;;;;;;;;8.20;99.90;;;;;;5042937;28;19913;-90
2022/11/07 03:56:13;;;;;;;;;;;8.20;99.90;;;;;;5067134;28;19909;-90
2022/11/07 03:58:38;;;;;;;;;;;8.20;99.90;;;;;;5095442;28;19908;-90
2022/11/07 04:01:04;;;;;;;;;;;8.20;99.90;;;;;;5057620;28;19909;-90
2022/11/07 04:03:30;;;;;;;;;;;8.30;99.90;;;;;;5078707;28;19958;-89
2022/11/07 04:05:58;;;;;;;;;;;8.20;99.90;;;;;;5043183;28;19960;-91
2022/11/07 04:08:23;;;;;;;;;;;8.20;99.90;;;;;;5062413;28;19912;-90
2022/11/07 04:10:49;;;;;;;;;;;8.30;99.90;;;;;;5075525;28;19908;-90
2022/11/07 04:18:43;;;;;;;;;;;8.30;99.90;;;;;;5087732;28;19937;-90
2022/11/07 04:21:09;;;;;;;;;;;8.30;99.90;;;;;;5081457;28;20276;-90
2022/11/07 04:24:08;;;;;;;;;;;8.40;99.90;;;;;;5056469;28;19913;-90
2022/11/07 04:29:37;;;;;;;;;;;8.40;99.90;;;;;;5058809;28;19959;-90
2022/11/07 04:32:03;;;;;;;;;;;8.40;99.90;;;;;;5070619;28;19908;-90
2022/11/07 04:34:28;;;;;;;;;;;8.50;99.90;;;;;;5048154;28;19904;-90
2022/11/07 04:43:27;;;;;;;;;;;8.50;99.90;;;;;;5055673;28;20490;-90
2022/11/07 04:45:52;;;;;;;;;;;8.60;99.90;;;;;;5057480;28;19987;-91
2022/11/07 04:48:18;;;;;;;;;;;8.60;99.90;;;;;;5039018;28;19970;-90
2022/11/07 04:50:44;;;;;;;;;;;8.60;99.90;;;;;;5073029;28;19909;-90
2022/11/07 04:56:13;;;;;;;;;;;8.60;99.90;;;;;;5063140;28;19935;-90
2022/11/07 04:58:39;;;;;;;;;;;8.60;99.90;;;;;;5040017;28;19908;-91
2022/11/07 05:01:04;;;;;;;;;;;8.60;99.90;;;;;;5044736;28;19970;-90
2022/11/07 05:03:30;;;;;;;;;;;8.60;99.90;;;;;;5064913;28;19908;-90
2022/11/07 05:06:12;;;;;;;;;;;8.50;99.90;;;;;;5038709;28;19912;-90
2022/11/07 05:08:38;;;;;;;;;;;8.50;99.90;;;;;;5066344;28;20275;-90
2022/11/07 05:11:04;;;;;;;;;;;8.40;99.90;;;;;;5055882;28;19916;-90
2022/11/07 05:13:29;;;;;;;;;;;8.50;99.90;;;;;;5066746;28;20657;-91
2022/11/07 05:15:56;;;;;;;;;;;8.50;99.90;;;;;;5064544;28;19952;-90
2022/11/07 05:18:23;;;;;;;;;;;8.50;99.90;;;;;;5067076;28;19916;-90
2022/11/07 05:20:49;;;;;;;;;;;8.60;99.90;;;;;;5065342;28;19991;-90
2022/11/07 05:23:33;;;;;;;;;;;8.60;99.90;;;;;;5052349;28;19944;-89
2022/11/07 05:25:58;;;;;;;;;;;8.60;99.90;;;;;;5053672;28;20003;-90
2022/11/07 05:28:25;;;;;;;;;;;8.60;99.90;;;;;;5053730;28;20677;-90
2022/11/07 05:30:51;;;;;;;;;;;8.60;99.90;;;;;;5071100;28;20361;-90
2022/11/07 05:33:17;;;;;;;;;;;8.60;99.90;;;;;;5041615;28;19920;-90
2022/11/07 05:35:43;;;;;;;;;;;8.60;99.90;;;;;;5053364;28;19909;-90
2022/11/07 05:38:09;;;;;;;;;;;8.70;99.90;;;;;;5064585;28;19909;-90
2022/11/07 05:40:35;;;;;;;;;;;8.70;99.90;;;;;;5054398;28;20428;-90
2022/11/07 05:43:02;;;;;;;;;;;8.60;99.90;;;;;;5050755;28;20334;-90
2022/11/07 05:45:28;;;;;;;;;;;8.70;99.90;;;;;;5069043;28;19968;-90
2022/11/07 05:47:58;;;;;;;;;;;8.60;99.90;;;;;;5056561;28;19935;-90
2022/11/07 05:50:23;;;;;;;;;;;8.60;99.90;;;;;;5043719;28;20388;-89
2022/11/07 05:52:49;;;;;;;;;;;8.70;99.90;;;;;;5065929;28;19908;-90
2022/11/07 05:55:14;;;;;;;;;;;8.60;99.90;;;;;;5051021;28;19916;-90
2022/11/07 05:57:40;;;;;;;;;;;8.60;99.90;;;;;;5090431;28;20360;-90
2022/11/07 06:00:06;;;;;;;;;;;8.60;99.90;;;;;;5069548;28;19908;-89
2022/11/07 06:02:37;;;;;;;;;;;8.60;99.90;;;;;;5057091;28;19912;-90
2022/11/07 06:05:25;;;;;;;;;;;8.60;99.90;;;;;;5052719;28;19916;-90
2022/11/07 06:07:50;;;;;;;;;;;8.60;99.90;;;;;;5059598;28;20055;-90
2022/11/07 06:10:16;;;;;;;;;;;8.70;99.90;;;;;;5050253;28;20021;-88
2022/11/07 06:12:42;;;;;;;;;;;8.60;99.90;;;;;;5043972;28;20314;-87
2022/11/07 06:15:07;;;;;;;;;;;8.70;99.90;;;;;;5063592;28;20265;-87
2022/11/07 06:17:33;;;;;;;;;;;8.70;99.90;;;;;;5061530;28;19920;-90
2022/11/07 06:19:59;;;;;;;;;;;8.70;99.90;;;;;;5064024;28;19995;-90
2022/11/07 06:22:24;;;;;;;;;;;8.70;99.90;;;;;;5034429;28;20216;-89
2022/11/07 06:24:50;;;;;;;;;;;8.70;99.90;;;;;;5035745;28;19931;-88
2022/11/07 06:27:16;;;;;;;;;;;8.80;99.90;;;;;;5040633;28;20332;-88
2022/11/07 06:29:41;;;;;;;;;;;8.80;99.90;;;;;;5046165;28;19909;-87
2022/11/07 06:32:07;;;;;;;;;;;8.80;99.90;;;;;;5073074;28;19912;-87
2022/11/07 06:34:32;;;;;;;;;;;8.80;99.90;;;;;;5044369;28;19908;-87
2022/11/07 06:36:58;;;;;;;;;;;8.80;99.90;;;;;;5055485;28;19953;-88
2022/11/07 06:39:24;;;;;;;;;;;8.80;99.90;;;;;;5082295;28;19915;-88
2022/11/07 06:41:49;;;;;;;;;;;8.80;99.90;;;;;;5057761;28;20065;-88
2022/11/07 06:44:16;;;;;;;;;;;8.90;99.90;;;;;;5045085;28;20471;-89
2022/11/07 06:46:41;;;;;;;;;;;8.80;99.90;;;;;;5028137;28;19909;-89
2022/11/07 06:49:07;;;;;;;;;;;8.90;99.90;;;;;;5049281;28;19924;-88
2022/11/07 06:51:32;;;;;;;;;;;8.90;99.90;;;;;;5077972;28;19913;-87
2022/11/07 06:53:58;;;;;;;;;;;8.90;99.90;;;;;;5047709;28;19908;-88
2022/11/07 06:56:23;;;;;;;;;;;8.90;99.90;;;;;;5080227;28;19999;-88
2022/11/07 06:58:49;;;;;;;;;;;9.00;99.90;;;;;;5055908;28;19908;-88
2022/11/07 07:01:18;;;;;;;;;;;9.00;99.90;;;;;;5065255;28;19913;-88
2022/11/07 07:03:43;;;;;;;;;;;9.00;99.90;;;;;;5045361;28;19912;-88
2022/11/07 07:06:11;;;;;;;;;;;9.00;99.90;;;;;;5061253;28;19962;-85
2022/11/07 07:08:37;;;;;;;;;;;9.00;99.90;;;;;;5063244;28;20282;-88
2022/11/07 07:11:04;;;;;;;;;;;9.00;99.90;;;;;;5060524;28;20008;-88
2022/11/07 07:13:30;;;;;;;;;;;9.00;99.90;;;;;;5053903;28;20016;-88
2022/11/07 07:15:56;;;;;;;;;;;9.00;99.90;;;;;;5049725;28;20323;-87
2022/11/07 07:18:22;;;;;;;;;;;9.00;99.90;;;;;;5053254;28;20360;-88
2022/11/07 07:20:48;;;;;;;;;;;9.00;99.90;;;;;;5049577;28;19920;-87
2022/11/07 07:23:14;;;;;;;;;;;9.00;99.90;;;;;;5065557;28;19912;-88
2022/11/07 07:25:39;;;;;;;;;;;9.10;99.90;;;;;;5062873;28;19965;-88
2022/11/07 07:28:05;;;;;;;;;;;9.10;99.90;;;;;;5059906;28;20314;-88
2022/11/07 07:30:31;;;;;;;;;;;9.20;99.90;;;;;;5066310;28;19912;-88
2022/11/07 07:32:56;;;;;;;;;;;9.20;99.90;;;;;;5044419;28;19963;-88
2022/11/07 07:35:22;;;;;;;;;;;9.20;99.90;;;;;;5095763;28;19950;-88
2022/11/07 07:38:00;;;;;;;;;;;9.30;99.90;;;;;;5044865;28;19966;-88
2022/11/07 07:40:25;;;;;;;;;;;9.30;99.90;;;;;;5052173;28;20568;-88
2022/11/07 07:42:51;;;;;;;;;;;9.40;99.90;;;;;;5059068;28;19916;-88
2022/11/07 07:45:17;;;;;;;;;;;9.40;99.90;;;;;;5050202;28;19924;-88
2022/11/07 07:47:42;;;;;;;;;;;9.40;99.90;;;;;;5060550;28;20370;-88
2022/11/07 07:50:09;;;;;;;;;;;9.50;99.90;;;;;;5034319;28;19913;-88
2022/11/07 07:52:35;;;;;;;;;;;9.40;99.90;;;;;;5050371;28;19996;-88
2022/11/07 07:55:13;;;;;;;;;;;9.50;99.90;;;;;;5041273;28;19959;-87
2022/11/07 07:57:41;;;;;;;;;;;9.40;99.90;;;;;;5048882;28;19909;-88
2022/11/07 08:00:08;;;;;;;;;;;9.40;99.90;;;;;;5049197;28;19913;-87
2022/11/07 08:02:37;;;;;;;;;;;9.40;99.90;;;;;;5048606;28;20308;-87
2022/11/07 08:05:03;;;;;;;;;;;9.30;99.90;;;;;;5066258;28;19923;-88
2022/11/07 08:07:28;;;;;;;;;;;9.40;99.90;;;;;;5058822;28;20303;-88
2022/11/07 08:09:54;;;;;;;;;;;9.40;99.90;;;;;;5075205;28;19912;-88
2022/11/07 08:15:48;;;;;;;;;;;9.30;99.90;;;;;;5042788;28;19931;-88
2022/11/07 08:18:14;;;;;;;;;;;9.40;99.90;;;;;;5064063;28;19908;-88
2022/11/07 08:20:40;;;;;;;;;;;9.50;99.90;;;;;;5057714;28;19912;-87
2022/11/07 08:23:06;;;;;;;;;;;9.60;99.90;;;;;;5038053;28;19913;-84
2022/11/07 08:25:32;;;;;;;;;;;9.80;99.90;;;;;;5058064;28;20287;-85
2022/11/07 08:27:58;;;;;;;;;;;9.90;99.90;;;;;;5048750;28;19908;-85
2022/11/07 08:30:25;;;;;;;;;;;10.00;99.90;;;;;;5048278;28;19955;-85
2022/11/07 08:32:51;;;;;;;;;;;10.20;99.90;;;;;;5048967;28;19998;-85
2022/11/07 08:35:17;;;;;;;;;;;10.30;99.90;;;;;;5047708;28;20008;-85
2022/11/07 08:37:43;;;;;;;;;;;10.40;99.90;;;;;;5048451;28;19909;-86
2022/11/07 08:40:08;;;;;;;;;;;10.40;99.90;;;;;;5052679;28;19917;-85
2022/11/07 08:42:34;;;;;;;;;;;10.50;99.90;;;;;;5052416;28;19912;-85
2022/11/07 08:45:00;;;;;;;;;;;10.50;99.90;;;;;;5046069;28;20049;-88
2022/11/07 08:47:27;;;;;;;;;;;10.50;99.90;;;;;;5042050;28;19923;-88
2022/11/07 08:49:53;;;;;;;;;;;10.60;99.90;;;;;;5055139;28;20692;-88
2022/11/07 08:52:18;;;;;;;;;;;10.40;99.90;;;;;;5053216;28;19913;-88
2022/11/07 08:54:44;;;;;;;;;;;10.40;99.90;;;;;;5084735;28;20110;-88
2022/11/07 08:57:09;;;;;;;;;;;10.40;99.90;;;;;;5056204;28;19909;-88
2022/11/07 08:59:35;;;;;;;;;;;10.40;99.90;;;;;;5056826;28;20015;-88
2022/11/07 09:02:01;;;;;;;;;;;10.40;99.90;;;;;;5058484;28;19916;-88
2022/11/07 09:04:26;;;;;;;;;;;10.40;99.90;;;;;;5036745;28;19912;-87
2022/11/07 09:06:52;;;;;;;;;;;10.40;99.90;;;;;;5056520;28;19908;-88
2022/11/07 09:09:17;;;;;;;;;;;10.40;99.90;;;;;;5045005;28;19959;-88
2022/11/07 09:11:43;;;;;;;;;;;10.60;99.90;;;;;;5075421;28;20280;-88
2022/11/07 09:14:08;;;;;;;;;;;10.60;99.90;;;;;;5073150;28;19952;-88
2022/11/07 09:16:34;;;;;;;;;;;10.60;99.90;;;;;;5059698;28;19909;-88
2022/11/07 09:18:59;;;;;;;;;;;10.80;99.90;;;;;;5039706;28;19908;-86
2022/11/07 09:21:25;;;;;;;;;;;10.80;99.90;;;;;;5057527;28;19917;-86
2022/11/07 09:30:51;;;;;;;;;;;11.10;99.90;;;;;;5046853;28;20264;-86
2022/11/07 09:33:17;;;;;;;;;;;11.30;99.90;;;;;;5046839;28;19916;-86
2022/11/07 09:35:43;;;;;;;;;;;11.20;99.90;;;;;;5058003;28;19905;-86
2022/11/07 09:38:08;;;;;;;;;;;11.40;99.90;;;;;;5049379;28;20319;-86
2022/11/07 09:44:02;;;;;;;;;;;11.50;99.90;;;;;;5053012;28;19916;-86
2022/11/07 09:46:40;;;;;;;;;;;11.50;99.90;;;;;;5057702;28;19924;-87
2022/11/07 09:49:26;;;;;;;;;;;11.40;99.90;;;;;;5056840;28;19915;-87
2022/11/07 09:52:10;;;;;;;;;;;11.10;99.90;;;;;;5057303;28;20391;-87
2022/11/07 09:54:37;;;;;;;;;;;10.80;99.90;;;;;;5082513;28;19908;-87
2022/11/07 09:57:03;;;;;;;;;;;10.60;99.90;;;;;;5060330;28;20276;-86
2022/11/07 09:59:35;;;;;;;;;;;10.40;99.90;;;;;;5065427;28;19904;-86
2022/11/07 10:02:02;;;;;;;;;;;10.30;99.90;;;;;;5053792;28;19908;-86
2022/11/07 10:04:27;;;;;;;;;;;10.30;99.90;;;;;;5058694;28;19969;-86
2022/11/07 10:06:59;;;;;;;;;;;10.30;99.90;;;;;;5057844;28;19912;-86
2022/11/07 10:09:24;;;;;;;;;;;10.20;99.90;;;;;;5060079;28;20383;-86
2022/11/07 10:11:59;;;;;;;;;;;10.20;99.90;;;;;;5075460;28;19912;-86
2022/11/07 10:14:24;;;;;;;;;;;10.20;99.90;;;;;;5089908;28;19909;-85
2022/11/07 10:17:09;;;;;;;;;;;10.20;99.90;;;;;;5043801;28;19909;-86
2022/11/07 10:19:47;;;;;;;;;;;10.20;99.90;;;;;;5038123;28;20346;-86
2022/11/07 10:22:13;;;;;;;;;;;10.20;99.90;;;;;;5045119;28;19923;-86
2022/11/07 10:28:11;;;;;;;;;;;10.10;99.90;;;;;;5054874;28;19923;-89
2022/11/07 10:30:37;;;;;;;;;;;9.90;99.90;;;;;;5077532;28;20129;-89
2022/11/07 10:33:26;;;;;;;;;;;9.90;99.90;;;;;;5047629;28;20326;-89
2022/11/07 10:35:58;;;;;;;;;;;9.90;99.90;;;;;;5054265;28;19923;-88
2022/11/07 10:38:25;;;;;;;;;;;10.00;99.90;;;;;;5044167;28;19909;-90
2022/11/07 10:40:51;;;;;;;;;;;10.10;99.90;;;;;;5074915;28;19909;-89
2022/11/07 10:43:23;;;;;;;;;;;10.10;99.90;;;;;;5050220;28;19912;-90
2022/11/07 10:45:49;;;;;;;;;;;10.10;99.90;;;;;;5059882;28;19952;-90
2022/11/07 10:48:15;;;;;;;;;;;10.10;99.90;;;;;;5042042;28;19915;-90
2022/11/07 10:50:49;;;;;;;;;;;10.10;99.90;;;;;;5078338;28;19909;-90
2022/11/07 10:53:17;;;;;;;;;;;10.10;99.90;;;;;;5058927;28;19968;-89
2022/11/07 10:55:44;;;;;;;;;;;10.10;99.90;;;;;;5062527;28;19947;-86
2022/11/07 11:01:38;;;;;;;;;;;10.20;99.90;;;;;;5050926;28;19954;-86
2022/11/07 11:04:04;;;;;;;;;;;10.20;99.90;;;;;;5052533;28;20306;-86
2022/11/07 11:06:30;;;;;;;;;;;10.10;99.90;;;;;;5047003;28;19908;-86
2022/11/07 11:08:56;;;;;;;;;;;10.10;99.90;;;;;;5048751;28;19908;-86
2022/11/07 11:11:29;;;;;;;;;;;10.20;99.90;;;;;;5046204;28;19916;-87
2022/11/07 11:14:17;;;;;;;;;;;10.30;99.90;;;;;;5052936;28;19918;-87
2022/11/07 11:16:43;;;;;;;;;;;10.30;99.90;;;;;;5036728;28;20318;-87
2022/11/07 11:19:17;;;;;;;;;;;10.20;99.90;;;;;;5053255;28;19909;-86
2022/11/07 11:21:45;;;;;;;;;;;10.10;99.90;;;;;;5036458;28;20373;-86
2022/11/07 11:24:21;;;;;;;;;;;10.00;99.90;;;;;;5086317;28;19935;-86
2022/11/07 11:26:49;;;;;;;;;;;9.90;99.90;;;;;;5052126;28;20191;-86
2022/11/07 11:29:31;;;;;;;;;;;10.00;99.90;;;;;;5052490;28;19911;-86
2022/11/07 11:31:57;;;;;;;;;;;10.00;99.90;;;;;;5052996;28;19912;-86
2022/11/07 11:34:29;;;;;;;;;;;10.00;99.90;;;;;;5086535;28;20003;-85
2022/11/07 11:37:00;;;;;;;;;;;10.20;99.90;;;;;;5053560;28;19912;-86
2022/11/07 11:39:38;;;;;;;;;;;10.20;99.90;;;;;;5047430;28;19913;-87
2022/11/07 11:42:04;;;;;;;;;;;10.20;99.90;;;;;;5058350;28;20426;-86
2022/11/07 11:44:40;;;;;;;;;;;10.20;99.90;;;;;;5035712;28;20463;-86
2022/11/07 11:47:18;;;;;;;;;;;10.20;99.90;;;;;;5068957;28;19909;-88
2022/11/07 11:49:51;;;;;;;;;;;10.30;99.90;;;;;;5046673;28;19913;-87
2022/11/07 11:52:18;;;;;;;;;;;10.20;99.90;;;;;;5050296;28;19908;-88
2022/11/07 11:54:44;;;;;;;;;;;10.30;99.90;;;;;;5054563;28;19908;-88
2022/11/07 11:57:28;;;;;;;;;;;10.40;99.90;;;;;;5045703;28;19944;-88
2022/11/07 12:00:00;;;;;;;;;;;10.40;99.90;;;;;;5059666;28;19962;-86
2022/11/07 12:02:31;;;;;;;;;;;10.30;99.90;;;;;;5053910;28;20011;-88
2022/11/07 12:05:16;;;;;;;;;;;10.30;99.90;;;;;;5068332;28;20031;-87
2022/11/07 12:08:08;;;;;;;;;;;10.40;99.90;;;;;;5056451;28;19908;-88
2022/11/07 12:10:48;;;;;;;;;;;10.60;99.90;;;;;;5059325;28;19912;-88
2022/11/07 12:13:23;;;;;;;;;;;10.80;99.90;;;;;;5054838;28;20266;-87
2022/11/07 12:15:48;;;;;;;;;;;10.90;99.90;;;;;;5048017;28;20332;-87
2022/11/07 12:18:21;;;;;;;;;;;11.10;99.90;;;;;;5044351;28;19911;-87
2022/11/07 12:21:13;;;;;;;;;;;11.20;99.90;;;;;;5065952;28;20263;-86
2022/11/07 12:23:38;;;;;;;;;;;11.20;99.90;;;;;;5052936;28;19917;-88
2022/11/07 12:26:17;;;;;;;;;;;11.40;99.90;;;;;;5049868;28;19919;-88
2022/11/07 12:28:49;;;;;;;;;;;11.40;99.90;;;;;;5054829;28;19912;-88
2022/11/07 12:31:15;;;;;;;;;;;11.60;99.90;;;;;;5055605;28;19920;-88
2022/11/07 12:33:54;;;;;;;;;;;11.80;99.90;;;;;;5090792;28;19909;-87
2022/11/07 12:36:33;;;;;;;;;;;12.10;99.90;;;;;;5058143;28;19977;-88
2022/11/07 12:38:59;;;;;;;;;;;12.40;99.90;;;;;;5052548;28;20423;-87
2022/11/07 12:41:43;;;;;;;;;;;12.70;99.90;;;;;;5041088;28;19970;-88
2022/11/07 12:44:27;;;;;;;;;;;12.90;99.90;;;;;;5052089;28;19908;-89
2022/11/07 12:46:55;;;;;;;;;;;13.10;99.90;;;;;;5052807;28;19913;-88
2022/11/07 12:49:26;;;;;;;;;;;13.40;99.90;;;;;;5056599;28;19908;-88
2022/11/07 12:51:52;;;;;;;;;;;13.50;99.90;;;;;;5053327;28;20370;-88
2022/11/07 12:54:23;;;;;;;;;;;13.30;99.90;;;;;;5074559;28;19909;-88
2022/11/07 12:56:49;;;;;;;;;;;13.30;99.90;;;;;;5040734;28;19912;-88
2022/11/07 12:59:21;;;;;;;;;;;13.20;99.90;;;;;;5063395;28;19908;-88
2022/11/07 13:01:54;;;;;;;;;;;13.20;99.90;;;;;;5065681;28;19908;-88
2022/11/07 13:04:34;;;;;;;;;;;13.00;99.90;;;;;;5071812;28;20352;-88
2022/11/07 13:07:19;;;;;;;;;;;12.80;99.90;;;;;;5074945;28;20355;-88
2022/11/07 13:09:50;;;;;;;;;;;12.70;99.90;;;;;;5054766;28;20646;-88
2022/11/07 13:12:21;;;;;;;;;;;12.60;99.90;;;;;;5022388;28;20280;-88
2022/11/07 13:14:47;;;;;;;;;;;12.50;99.90;;;;;;5070507;28;20416;-88
2022/11/07 13:17:14;;;;;;;;;;;12.60;99.90;;;;;;5058579;28;19967;-88
2022/11/07 13:19:42;;;;;;;;;;;12.40;99.90;;;;;;5041443;28;19915;-87
2022/11/07 13:22:22;;;;;;;;;;;12.40;99.90;;;;;;5038157;28;20366;-88
2022/11/07 13:25:06;;;;;;;;;;;12.50;99.90;;;;;;5041303;28;19917;-87
2022/11/07 13:27:33;;;;;;;;;;;12.70;99.90;;;;;;5050438;28;19932;-88
2022/11/07 13:30:14;;;;;;;;;;;12.90;99.90;;;;;;5054692;28;19909;-88
2022/11/07 13:32:44;;;;;;;;;;;13.10;99.90;;;;;;5047201;28;19931;-88
2022/11/07 13:35:23;;;;;;;;;;;13.00;99.90;;;;;;5042512;28;20021;-88
2022/11/07 13:37:52;;;;;;;;;;;13.00;99.90;;;;;;5050209;28;20000;-88
2022/11/07 13:40:21;;;;;;;;;;;12.90;99.90;;;;;;5058655;28;19913;-88
2022/11/07 13:42:47;;;;;;;;;;;13.00;99.90;;;;;;5048093;28;19908;-88
2022/11/07 13:45:16;;;;;;;;;;;13.10;99.90;;;;;;5048316;28;20546;-88
2022/11/07 13:47:41;;;;;;;;;;;13.20;99.90;;;;;;5034798;28;19909;-87
2022/11/07 13:50:17;;;;;;;;;;;13.10;99.90;;;;;;5065876;28;19912;-88
2022/11/07 13:52:47;;;;;;;;;;;13.10;99.90;;;;;;5048748;28;19912;-88
2022/11/07 13:55:24;;;;;;;;;;;13.00;99.90;;;;;;5040303;28;19908;-88
2022/11/07 13:57:52;;;;;;;;;;;12.80;99.90;;;;;;5055639;28;19909;-88
2022/11/07 14:00:49;;;;;;;;;;;12.60;99.90;;;;;;5054831;28;20578;-88
2022/11/07 14:03:41;;;;;;;;;;;12.50;99.90;;;;;;5056637;28;19916;-87
2022/11/07 14:06:10;;;;;;;;;;;12.30;99.90;;;;;;5047675;28;19913;-87
2022/11/07 14:08:38;;;;;;;;;;;12.20;99.90;;;;;;5042724;28;20264;-87
2022/11/07 14:11:12;;;;;;;;;;;12.00;99.90;;;;;;5049989;28;19912;-87
2022/11/07 14:13:38;;;;;;;;;;;12.00;99.90;;;;;;5044452;28;19921;-87
2022/11/07 14:16:06;;;;;;;;;;;11.90;99.90;;;;;;5052267;28;20451;-87
2022/11/07 14:18:33;;;;;;;;;;;11.90;99.90;;;;;;5046326;28;19939;-88
2022/11/07 14:20:59;;;;;;;;;;;11.90;99.90;;;;;;5054286;28;20352;-87
2022/11/07 14:23:26;;;;;;;;;;;11.80;99.90;;;;;;5053826;28;19919;-87
2022/11/07 14:25:53;;;;;;;;;;;11.80;99.90;;;;;;5047279;28;19920;-87
2022/11/07 14:28:18;;;;;;;;;;;11.80;99.90;;;;;;5049728;28;20194;-87
2022/11/07 14:30:47;;;;;;;;;;;11.70;99.90;;;;;;5053321;28;20012;-87
2022/11/07 14:33:17;;;;;;;;;;;11.60;99.90;;;;;;5045863;28;20390;-87
2022/11/07 14:35:44;;;;;;;;;;;11.60;99.90;;;;;;5052017;28;19908;-87
2022/11/07 14:38:11;;;;;;;;;;;11.50;99.90;;;;;;5047231;28;20509;-87
2022/11/07 14:40:37;;;;;;;;;;;11.40;99.90;;;;;;5051827;28;19915;-87
2022/11/07 14:43:03;;;;;;;;;;;11.30;99.90;;;;;;5053489;28;19905;-87
2022/11/07 14:45:29;;;;;;;;;;;11.40;99.90;;;;;;5050817;28;20909;-88
2022/11/07 14:47:54;;;;;;;;;;;11.30;99.90;;;;;;5046590;28;19905;-88
2022/11/07 14:50:26;;;;;;;;;;;11.20;99.90;;;;;;5044298;28;19916;-88
2022/11/07 14:52:52;;;;;;;;;;;11.20;99.90;;;;;;5083737;28;20410;-88
2022/11/07 14:55:34;;;;;;;;;;;11.20;99.90;;;;;;5047488;28;19912;-88
2022/11/07 14:58:00;;;;;;;;;;;11.20;99.90;;;;;;5045776;28;20398;-88
2022/11/07 15:00:26;;;;;;;;;;;11.20;99.90;;;;;;5053843;28;19912;-88
2022/11/07 15:03:01;;;;;;;;;;;11.20;99.90;;;;;;5047214;28;19931;-88
2022/11/07 15:05:27;;;;;;;;;;;11.20;99.90;;;;;;5033934;28;19935;-88
2022/11/07 15:07:53;;;;;;;;;;;11.20;99.90;;;;;;5052991;28;20003;-88
2022/11/07 15:13:47;;;;;;;;;;;11.10;99.90;;;;;;5053757;28;19971;-88
2022/11/07 15:16:14;;;;;;;;;;;11.10;99.90;;;;;;5061490;28;19920;-87
2022/11/07 15:18:41;;;;;;;;;;;11.20;99.90;;;;;;5053335;28;19913;-88
2022/11/07 15:21:10;;;;;;;;;;;11.10;99.90;;;;;;5064347;28;19972;-87
2022/11/07 15:23:35;;;;;;;;;;;11.10;99.90;;;;;;5053121;28;19916;-87